createdAt,value
2023-05-10T00:02:04.783Z,11.90
2023-05-10T00:04:51.455Z,11.80
2023-05-10T00:07:39.365Z,11.80
2023-05-10T00:10:26.299Z,11.80
2023-05-10T00:13:12.813Z,11.70
2023-05-10T00:15:59.155Z,11.70
2023-05-10T00:18:46.001Z,11.60
2023-05-10T00:21:33.246Z,11.60
2023-05-10T00:24:21.166Z,11.60
2023-05-10T00:27:07.876Z,11.60
2023-05-10T00:29:54.533Z,11.50
2023-05-10T00:32:41.142Z,11.40
2023-05-10T00:35:28.155Z,11.40
2023-05-10T00:38:15.176Z,11.30
2023-05-10T00:41:03.548Z,11.30
2023-05-10T00:43:50.311Z,11.30
2023-05-10T00:46:37.375Z,11.30
2023-05-10T00:49:23.971Z,11.30
2023-05-10T00:52:10.758Z,11.40
2023-05-10T00:54:57.894Z,11.20
2023-05-10T00:57:46.624Z,11.30
2023-05-10T01:00:35.254Z,11.20
2023-05-10T01:03:22.339Z,11.20
2023-05-10T01:06:10.813Z,11.20
2023-05-10T01:08:57.776Z,11.20
2023-05-10T01:11:44.153Z,11.20
2023-05-10T01:14:32.562Z,11.10
2023-05-10T01:17:19.640Z,11.10
2023-05-10T01:20:09.038Z,11.00
2023-05-10T01:23:33.476Z,11.10
2023-05-10T01:26:49.220Z,11.00
2023-05-10T01:30:17.291Z,11.10
2023-05-10T01:33:12.976Z,11.00
2023-05-10T01:36:10.419Z,11.10
2023-05-10T01:39:04.568Z,11.00
2023-05-10T01:41:56.539Z,11.00
2023-05-10T01:44:55.828Z,11.10
2023-05-10T01:47:45.347Z,11.00
2023-05-10T01:50:34.950Z,10.90
2023-05-10T01:53:23.215Z,10.80
2023-05-10T01:56:11.839Z,10.80
2023-05-10T01:58:59.930Z,10.80
2023-05-10T02:01:48.539Z,10.70
2023-05-10T02:04:39.535Z,10.70
2023-05-10T02:07:30.742Z,10.70
2023-05-10T02:10:20.898Z,10.60
2023-05-10T02:13:09.500Z,10.60
2023-05-10T02:15:57.525Z,10.60
2023-05-10T02:18:44.616Z,10.60
2023-05-10T02:21:32.209Z,10.60
2023-05-10T02:24:22.157Z,10.60
2023-05-10T02:27:10.598Z,10.50
2023-05-10T02:29:59.048Z,10.50
2023-05-10T02:32:46.105Z,10.40
2023-05-10T02:35:34.398Z,10.30
2023-05-10T02:38:22.261Z,10.30
2023-05-10T02:41:11.772Z,10.30
2023-05-10T02:44:01.871Z,10.20
2023-05-10T02:46:48.928Z,10.20
2023-05-10T02:49:36.047Z,10.30
2023-05-10T02:52:27.603Z,10.30
2023-05-10T02:55:16.914Z,10.30
2023-05-10T02:58:05.488Z,10.20
2023-05-10T03:00:52.162Z,10.20
2023-05-10T03:03:38.648Z,10.30
2023-05-10T03:06:25.301Z,10.20
2023-05-10T03:09:13.516Z,10.20
2023-05-10T03:12:09.445Z,10.20
2023-05-10T03:15:05.563Z,10.20
2023-05-10T03:17:59.112Z,10.30
2023-05-10T03:20:49.296Z,10.30
2023-05-10T03:23:38.638Z,10.20
2023-05-10T03:26:28.069Z,10.20
2023-05-10T03:29:16.341Z,10.30
2023-05-10T03:32:04.788Z,10.30
2023-05-10T03:34:51.207Z,10.30
2023-05-10T03:37:37.669Z,10.30
2023-05-10T03:40:24.899Z,10.30
2023-05-10T03:43:11.264Z,10.20
2023-05-10T03:45:57.538Z,10.20
2023-05-10T03:48:45.329Z,10.10
2023-05-10T03:51:32.525Z,10.10
2023-05-10T03:54:19.757Z,10.20
2023-05-10T03:57:06.302Z,10.20
2023-05-10T03:59:52.964Z,10.40
2023-05-10T04:02:39.521Z,10.40
2023-05-10T04:05:27.555Z,10.60
2023-05-10T04:08:13.939Z,10.70
2023-05-10T04:11:08.267Z,10.80
2023-05-10T04:13:55.016Z,10.90
2023-05-10T04:16:41.456Z,11.10
2023-05-10T04:19:31.795Z,11.30
2023-05-10T04:22:19.870Z,11.50
2023-05-10T04:25:07.944Z,11.70
2023-05-10T04:27:54.600Z,11.90
2023-05-10T04:30:41.523Z,12.20
2023-05-10T04:33:28.263Z,12.40
2023-05-10T04:36:14.602Z,12.60
2023-05-10T04:39:03.600Z,12.80
2023-05-10T04:41:50.129Z,13.00
2023-05-10T04:44:37.203Z,13.10
2023-05-10T04:47:23.413Z,13.10
2023-05-10T04:50:10.417Z,13.20
2023-05-10T04:52:56.977Z,13.20
2023-05-10T04:55:44.868Z,13.40
2023-05-10T04:58:31.663Z,13.50
2023-05-10T05:01:18.093Z,13.60
2023-05-10T05:04:04.989Z,13.80
2023-05-10T05:06:53.728Z,13.80
2023-05-10T05:09:40.400Z,14.10
2023-05-10T05:12:28.406Z,14.30
2023-05-10T05:15:16.158Z,14.60
2023-05-10T05:18:03.010Z,14.70
2023-05-10T05:20:49.484Z,14.60
2023-05-10T05:23:35.825Z,14.60
2023-05-10T05:26:22.342Z,14.70
2023-05-10T05:29:10.032Z,14.70
2023-05-10T05:31:56.519Z,14.50
2023-05-10T05:34:42.941Z,14.40
2023-05-10T05:37:29.523Z,14.30
2023-05-10T05:40:16.130Z,14.20
2023-05-10T05:43:02.835Z,14.30
2023-05-10T05:45:50.807Z,14.30
2023-05-10T05:48:37.128Z,14.30
2023-05-10T05:51:23.559Z,14.40
2023-05-10T05:54:10.254Z,14.50
2023-05-10T05:56:59.268Z,14.50
2023-05-10T05:59:46.941Z,14.60
2023-05-10T06:02:34.796Z,14.80
2023-05-10T06:05:21.297Z,14.90
2023-05-10T06:08:07.515Z,14.90
2023-05-10T06:10:54.008Z,15.10
2023-05-10T06:13:40.517Z,15.00
2023-05-10T06:16:26.920Z,15.00
2023-05-10T06:19:15.036Z,15.00
2023-05-10T06:22:01.996Z,15.00
2023-05-10T06:24:48.254Z,15.10
2023-05-10T06:27:34.731Z,15.30
2023-05-10T06:30:28.200Z,15.40
2023-05-10T06:33:14.999Z,15.50
2023-05-10T06:36:03.098Z,15.80
2023-05-10T06:38:49.810Z,16.00
2023-05-10T06:41:36.229Z,16.20
2023-05-10T06:44:22.775Z,16.40
2023-05-10T06:47:09.580Z,16.60
2023-05-10T06:49:56.678Z,16.70
2023-05-10T06:52:45.012Z,16.70
2023-05-10T06:55:31.883Z,16.50
2023-05-10T06:58:18.543Z,16.50
2023-05-10T07:01:06.018Z,16.50
2023-05-10T07:03:53.124Z,16.40
2023-05-10T07:06:40.874Z,16.50
2023-05-10T07:09:28.536Z,16.50
2023-05-10T07:12:16.005Z,16.70
2023-05-10T07:15:02.659Z,16.70
2023-05-10T07:17:49.341Z,16.70
2023-05-10T07:20:36.243Z,16.70
2023-05-10T07:23:22.578Z,16.60
2023-05-10T07:26:10.610Z,16.50
2023-05-10T07:28:57.203Z,16.50
2023-05-10T07:31:43.835Z,16.60
2023-05-10T07:34:31.060Z,16.50
2023-05-10T07:37:17.563Z,16.50
2023-05-10T07:40:04.010Z,16.50
2023-05-10T07:42:51.751Z,16.50
2023-05-10T07:45:38.275Z,16.40
2023-05-10T07:48:24.621Z,16.50
2023-05-10T07:51:11.577Z,16.50
2023-05-10T07:53:58.927Z,16.50
2023-05-10T07:56:48.054Z,16.50
2023-05-10T07:59:35.951Z,16.50
2023-05-10T08:02:22.264Z,16.60
2023-05-10T08:05:09.426Z,16.60
2023-05-10T08:07:55.738Z,16.50
2023-05-10T08:10:42.268Z,16.50
2023-05-10T08:13:28.804Z,16.40
2023-05-10T08:16:17.679Z,16.30
2023-05-10T08:19:04.316Z,16.10
2023-05-10T08:21:51.335Z,16.00
2023-05-10T08:24:39.341Z,15.90
2023-05-10T08:27:25.658Z,15.80
2023-05-10T08:30:13.000Z,15.70
2023-05-10T08:33:01.069Z,15.70
2023-05-10T08:35:47.695Z,15.60
2023-05-10T08:38:33.985Z,15.60
2023-05-10T08:41:22.726Z,15.50
2023-05-10T08:44:10.333Z,15.50
2023-05-10T08:46:57.553Z,15.50
2023-05-10T08:49:48.942Z,15.50
2023-05-10T08:52:41.214Z,15.40
2023-05-10T08:55:27.709Z,15.40
2023-05-10T08:58:14.133Z,15.40
2023-05-10T09:01:02.765Z,15.50
2023-05-10T09:03:49.233Z,15.50
2023-05-10T09:06:37.742Z,15.50
2023-05-10T09:09:25.051Z,15.60
2023-05-10T09:15:01.594Z,15.70
2023-05-10T09:17:49.259Z,15.70
2023-05-10T09:20:35.476Z,15.80
2023-05-10T09:23:23.272Z,16.00
2023-05-10T09:26:09.733Z,16.10
2023-05-10T09:28:58.077Z,16.40
2023-05-10T09:31:51.986Z,16.30
2023-05-10T09:34:41.142Z,16.40
2023-05-10T09:37:31.856Z,16.20
2023-05-10T09:40:21.847Z,16.20
2023-05-10T09:43:09.467Z,16.10
2023-05-10T09:45:56.008Z,16.10
2023-05-10T09:48:47.265Z,16.10
2023-05-10T09:51:35.609Z,16.20
2023-05-10T09:54:24.717Z,16.40
2023-05-10T09:57:22.172Z,16.40
2023-05-10T10:00:10.967Z,16.60
2023-05-10T10:02:59.099Z,16.80
2023-05-10T10:05:47.013Z,16.90
2023-05-10T10:08:33.731Z,17.20
2023-05-10T10:11:20.309Z,17.30
2023-05-10T10:14:08.148Z,17.50
2023-05-10T10:17:05.674Z,17.60
2023-05-10T10:19:54.007Z,17.50
2023-05-10T10:22:40.700Z,17.40
2023-05-10T10:25:27.556Z,17.40
2023-05-10T10:28:40.468Z,17.50
2023-05-10T10:31:36.643Z,17.50
2023-05-10T10:34:28.874Z,17.30
2023-05-10T10:37:15.700Z,17.30
2023-05-10T10:40:09.872Z,17.30
2023-05-10T10:42:56.902Z,17.40
2023-05-10T10:45:43.694Z,17.40
2023-05-10T10:48:31.576Z,17.70
2023-05-10T10:51:18.208Z,17.80
2023-05-10T10:54:11.362Z,18.10
2023-05-10T10:57:14.083Z,18.30
2023-05-10T11:00:28.700Z,18.50
2023-05-10T11:03:19.587Z,18.60
2023-05-10T11:06:08.589Z,18.80
2023-05-10T11:08:55.588Z,18.90
2023-05-10T11:11:53.204Z,18.90
2023-05-10T11:14:39.966Z,18.80
2023-05-10T11:17:26.988Z,18.70
2023-05-10T11:20:16.832Z,18.80
2023-05-10T11:23:16.790Z,18.80
2023-05-10T11:26:03.393Z,18.90
2023-05-10T11:28:51.190Z,18.90
2023-05-10T11:34:26.301Z,19.30
2023-05-10T11:37:12.965Z,19.60
2023-05-10T11:40:00.970Z,19.70
2023-05-10T11:42:47.450Z,19.90
2023-05-10T11:45:34.772Z,20.00
2023-05-10T11:48:27.167Z,19.90
2023-05-10T11:51:13.866Z,19.80
2023-05-10T11:54:00.706Z,19.70
2023-05-10T11:56:48.377Z,19.60
2023-05-10T11:59:34.805Z,19.70
2023-05-10T12:02:21.378Z,19.50
2023-05-10T12:05:08.973Z,19.40
2023-05-10T12:08:12.217Z,19.00
2023-05-10T12:11:07.910Z,18.80
2023-05-10T12:13:56.436Z,18.40
2023-05-10T12:16:44.907Z,18.20
2023-05-10T12:19:39.146Z,18.10
2023-05-10T12:22:25.854Z,18.00
2023-05-10T12:25:12.521Z,17.80
2023-05-10T12:28:01.739Z,17.70
2023-05-10T12:30:49.860Z,17.70
2023-05-10T12:33:43.600Z,17.70
2023-05-10T12:36:30.066Z,17.70
2023-05-10T12:39:16.585Z,17.70
2023-05-10T12:42:03.071Z,17.60
2023-05-10T12:44:49.781Z,17.60
2023-05-10T12:47:37.926Z,17.40
2023-05-10T12:50:25.239Z,17.30
2023-05-10T12:53:11.936Z,17.30
2023-05-10T12:55:58.621Z,17.40
2023-05-10T12:58:48.830Z,17.50
2023-05-10T13:01:35.218Z,17.60
2023-05-10T13:04:23.139Z,17.70
2023-05-10T13:07:09.742Z,17.80
2023-05-10T13:09:56.347Z,17.90
2023-05-10T13:12:42.751Z,17.90
2023-05-10T13:15:32.161Z,18.10
2023-05-10T13:18:19.042Z,18.20
2023-05-10T13:21:06.907Z,18.30
2023-05-10T13:23:53.430Z,18.20
2023-05-10T13:26:40.008Z,18.20
2023-05-10T13:29:26.298Z,18.10
2023-05-10T13:32:12.851Z,18.10
2023-05-10T13:34:59.346Z,18.00
2023-05-10T13:37:47.434Z,17.80
2023-05-10T13:40:33.778Z,17.70
2023-05-10T13:43:20.588Z,17.70
2023-05-10T13:46:07.054Z,17.60
2023-05-10T13:48:53.823Z,17.70
2023-05-10T13:51:40.539Z,17.70
2023-05-10T13:54:30.467Z,17.80
2023-05-10T13:57:17.751Z,17.70
2023-05-10T14:00:04.508Z,17.60
2023-05-10T14:02:51.209Z,17.60
2023-05-10T14:05:37.544Z,17.60
2023-05-10T14:08:23.992Z,17.60
2023-05-10T14:11:11.706Z,17.50
2023-05-10T14:13:58.192Z,17.50
2023-05-10T14:16:46.359Z,17.50
2023-05-10T14:19:33.524Z,17.40
2023-05-10T14:22:20.271Z,17.50
2023-05-10T14:25:07.669Z,17.60
2023-05-10T14:27:55.693Z,17.70
2023-05-10T14:30:41.977Z,17.70
2023-05-10T14:33:28.412Z,17.80
2023-05-10T14:36:15.318Z,17.80
2023-05-10T14:39:04.021Z,17.90
2023-05-10T14:41:52.272Z,17.90
2023-05-10T14:44:40.641Z,17.90
2023-05-10T14:47:27.032Z,18.00
2023-05-10T14:50:24.740Z,18.00
2023-05-10T14:53:20.471Z,18.00
2023-05-10T14:56:07.990Z,17.90
2023-05-10T14:58:57.698Z,17.90
2023-05-10T15:01:46.636Z,17.80
2023-05-10T15:04:33.983Z,17.60
2023-05-10T15:07:21.053Z,17.60
2023-05-10T15:10:08.596Z,17.70
2023-05-10T15:12:55.535Z,17.70
2023-05-10T15:15:41.877Z,17.70
2023-05-10T15:18:29.564Z,17.60
2023-05-10T15:21:16.211Z,17.60
2023-05-10T15:24:02.606Z,17.50
2023-05-10T15:26:48.981Z,17.60
2023-05-10T15:29:35.767Z,17.70
2023-05-10T15:32:22.465Z,17.70
2023-05-10T15:35:11.519Z,17.80
2023-05-10T15:37:58.291Z,17.70
2023-05-10T15:40:44.621Z,17.70
2023-05-10T15:43:31.011Z,17.80
2023-05-10T15:46:17.759Z,18.00
2023-05-10T15:49:04.093Z,18.00
2023-05-10T15:51:52.048Z,17.90
2023-05-10T15:54:38.450Z,17.90
2023-05-10T15:57:24.789Z,17.70
2023-05-10T16:00:12.802Z,17.60
2023-05-10T16:02:59.807Z,17.70
2023-05-10T16:05:46.573Z,17.60
2023-05-10T16:08:34.390Z,17.40
2023-05-10T16:11:21.104Z,17.30
2023-05-10T16:14:07.788Z,17.30
2023-05-10T16:16:54.432Z,17.30
2023-05-10T16:19:41.054Z,17.20
2023-05-10T16:22:28.712Z,17.20
2023-05-10T16:25:17.381Z,17.00
2023-05-10T16:28:04.368Z,16.90
2023-05-10T16:30:51.133Z,16.70
2023-05-10T16:33:37.394Z,16.70
2023-05-10T16:36:23.760Z,16.80
2023-05-10T16:39:10.315Z,16.70
2023-05-10T16:41:58.194Z,16.60
2023-05-10T16:44:44.783Z,16.60
2023-05-10T16:47:31.361Z,16.70
2023-05-10T16:50:18.389Z,16.80
2023-05-10T16:53:05.501Z,16.70
2023-05-10T16:55:51.788Z,16.70
2023-05-10T16:58:39.536Z,16.60
2023-05-10T17:01:27.053Z,16.40
2023-05-10T17:04:14.343Z,16.40
2023-05-10T17:07:01.347Z,16.40
2023-05-10T17:09:47.848Z,16.30
2023-05-10T17:12:34.228Z,16.30
2023-05-10T17:15:22.158Z,16.30
2023-05-10T17:18:10.122Z,16.30
2023-05-10T17:20:56.519Z,16.30
2023-05-10T17:23:42.971Z,16.40
2023-05-10T17:26:29.995Z,16.40
2023-05-10T17:29:16.677Z,16.40
2023-05-10T17:32:04.570Z,16.40
2023-05-10T17:35:07.033Z,16.30
2023-05-10T17:37:54.085Z,16.30
2023-05-10T17:40:41.932Z,16.20
2023-05-10T17:43:28.627Z,16.30
2023-05-10T17:46:15.106Z,16.30
2023-05-10T17:49:03.294Z,16.20
2023-05-10T17:51:50.386Z,16.10
2023-05-10T17:54:38.991Z,16.10
2023-05-10T17:57:25.454Z,16.10
2023-05-10T18:00:13.251Z,16.10
2023-05-10T18:02:59.812Z,16.10
2023-05-10T18:05:48.821Z,16.10
2023-05-10T18:08:35.377Z,16.10
2023-05-10T18:11:22.026Z,16.00
2023-05-10T18:14:08.498Z,16.10
2023-05-10T18:16:54.864Z,16.10
2023-05-10T18:19:41.718Z,16.00
2023-05-10T18:22:29.761Z,16.00
2023-05-10T18:25:16.558Z,16.00
2023-05-10T18:28:03.192Z,16.00
2023-05-10T18:30:49.686Z,16.00
2023-05-10T18:33:36.162Z,15.90
2023-05-10T18:36:24.146Z,15.90
2023-05-10T18:39:12.902Z,15.90
2023-05-10T18:41:59.416Z,15.80
2023-05-10T18:44:46.294Z,15.80
2023-05-10T18:47:32.802Z,15.80
2023-05-10T18:50:19.747Z,15.80
2023-05-10T18:53:06.307Z,15.80
2023-05-10T18:55:59.284Z,15.70
2023-05-10T18:58:46.074Z,15.70
2023-05-10T19:01:32.492Z,15.70
2023-05-10T19:04:18.942Z,15.70
2023-05-10T19:07:05.988Z,15.60
2023-05-10T19:09:52.440Z,15.70
2023-05-10T19:12:41.200Z,15.60
2023-05-10T19:15:27.890Z,15.70
2023-05-10T19:18:14.473Z,15.60
2023-05-10T19:21:04.353Z,15.60
2023-05-10T19:23:50.948Z,15.60
2023-05-10T19:26:37.353Z,15.60
2023-05-10T19:29:25.122Z,15.60
2023-05-10T19:32:12.071Z,15.60
2023-05-10T19:34:58.543Z,15.60
2023-05-10T19:37:47.111Z,15.60
2023-05-10T19:40:33.792Z,15.60
2023-05-10T19:43:21.459Z,15.60
2023-05-10T19:46:09.758Z,15.60
2023-05-10T19:48:56.673Z,15.60
2023-05-10T19:51:42.850Z,15.60
2023-05-10T19:54:29.542Z,15.50
2023-05-10T19:57:16.562Z,15.50
2023-05-10T20:00:04.984Z,15.60
2023-05-10T20:02:53.112Z,15.50
2023-05-10T20:05:39.874Z,15.60
2023-05-10T20:08:26.385Z,15.50
2023-05-10T20:11:13.068Z,15.60
2023-05-10T20:13:59.864Z,15.50
2023-05-10T20:16:46.418Z,15.50
2023-05-10T20:19:34.103Z,15.60
2023-05-10T20:22:20.800Z,15.60
2023-05-10T20:25:08.735Z,15.60
2023-05-10T20:27:55.556Z,15.50
2023-05-10T20:30:42.003Z,15.60
2023-05-10T20:33:28.570Z,15.50
2023-05-10T20:36:16.688Z,15.50
2023-05-10T20:39:03.596Z,15.50
2023-05-10T20:41:50.697Z,15.50
2023-05-10T20:44:37.405Z,15.50
2023-05-10T20:47:24.347Z,15.50
2023-05-10T20:50:11.612Z,15.50
2023-05-10T20:53:00.531Z,15.50
2023-05-10T20:55:46.869Z,15.50
2023-05-10T20:58:33.347Z,15.50
2023-05-10T21:01:19.852Z,15.50
2023-05-10T21:04:06.718Z,15.50
2023-05-10T21:06:53.410Z,15.50
2023-05-10T21:09:41.452Z,15.50
2023-05-10T21:12:28.092Z,15.50
2023-05-10T21:15:14.567Z,15.50
2023-05-10T21:18:01.450Z,15.50
2023-05-10T21:20:48.201Z,15.40
2023-05-10T21:23:34.776Z,15.40
2023-05-10T21:26:23.266Z,15.50
2023-05-10T21:29:10.122Z,15.40
2023-05-10T21:31:56.801Z,15.30
2023-05-10T21:34:43.106Z,15.30
2023-05-10T21:37:29.596Z,15.20
2023-05-10T21:40:16.575Z,15.00
2023-05-10T21:43:04.797Z,14.90
2023-05-10T21:45:51.268Z,14.80
2023-05-10T21:48:37.763Z,14.80
2023-05-10T21:51:24.158Z,14.70
2023-05-10T21:54:10.578Z,14.70
2023-05-10T21:56:56.971Z,14.70
2023-05-10T21:59:44.864Z,14.60
2023-05-10T22:02:31.406Z,14.50
2023-05-10T22:05:18.341Z,14.50
2023-05-10T22:08:06.318Z,14.50
2023-05-10T22:10:53.016Z,14.30
2023-05-10T22:13:39.731Z,14.40
2023-05-10T22:16:27.595Z,14.40
2023-05-10T22:19:14.273Z,14.40
2023-05-10T22:22:00.588Z,14.40
2023-05-10T22:24:47.038Z,14.40
2023-05-10T22:27:33.574Z,14.40
2023-05-10T22:30:20.341Z,14.40
2023-05-10T22:33:08.555Z,14.50
2023-05-10T22:35:54.876Z,14.50
2023-05-10T22:38:41.269Z,14.50
2023-05-10T22:41:27.719Z,14.50
2023-05-10T22:44:14.180Z,14.50
2023-05-10T22:47:00.617Z,14.50
2023-05-10T22:49:48.479Z,14.50
2023-05-10T22:52:35.596Z,14.50
2023-05-10T22:55:21.911Z,14.40
2023-05-10T22:58:08.623Z,14.30
2023-05-10T23:00:56.084Z,14.20
2023-05-10T23:03:42.853Z,14.10
2023-05-10T23:06:30.570Z,14.10
2023-05-10T23:09:17.337Z,14.10
2023-05-10T23:12:04.132Z,14.10
2023-05-10T23:14:50.621Z,14.10
2023-05-10T23:17:37.180Z,14.10
2023-05-10T23:20:23.860Z,14.10
2023-05-10T23:23:11.575Z,14.10
2023-05-10T23:26:00.560Z,14.10
2023-05-10T23:28:47.400Z,14.10
2023-05-10T23:31:33.883Z,14.10
2023-05-10T23:34:22.338Z,14.10
2023-05-10T23:37:08.797Z,14.00
2023-05-10T23:39:56.653Z,14.10
2023-05-10T23:42:43.238Z,14.00
2023-05-10T23:45:29.873Z,14.00
2023-05-10T23:48:16.381Z,14.10
2023-05-10T23:51:02.773Z,14.10
2023-05-10T23:53:49.188Z,14.10
2023-05-10T23:56:37.594Z,14.10
2023-05-10T23:59:24.366Z,14.10
